sensor_id;sensor_type;location;lat;lon;timestamp;P1;durP1;ratioP1;P2;durP2;ratioP2
77520;SDS011;66633;47.628;19.158;2024-03-17T00:01:46;14.40;;;7.47;;
77520;SDS011;66633;47.628;19.158;2024-03-17T00:04:11;12.67;;;6.97;;
77520;SDS011;66633;47.628;19.158;2024-03-17T00:06:36;13.07;;;5.80;;
77520;SDS011;66633;47.628;19.158;2024-03-17T00:09:02;10.75;;;5.40;;
77520;SDS011;66633;47.628;19.158;2024-03-17T00:11:35;8.32;;;4.63;;
77520;SDS011;66633;47.628;19.158;2024-03-17T00:14:00;8.52;;;4.07;;
77520;SDS011;66633;47.628;19.158;2024-03-17T00:16:26;9.05;;;4.22;;
77520;SDS011;66633;47.628;19.158;2024-03-17T00:18:52;8.30;;;3.65;;
77520;SDS011;66633;47.628;19.158;2024-03-17T00:21:17;7.70;;;3.40;;
77520;SDS011;66633;47.628;19.158;2024-03-17T00:23:44;7.22;;;3.30;;
77520;SDS011;66633;47.628;19.158;2024-03-17T00:26:10;5.82;;;2.85;;
77520;SDS011;66633;47.628;19.158;2024-03-17T00:28:35;5.97;;;2.93;;
77520;SDS011;66633;47.628;19.158;2024-03-17T00:31:02;5.87;;;2.63;;
77520;SDS011;66633;47.628;19.158;2024-03-17T00:33:28;6.00;;;2.90;;
77520;SDS011;66633;47.628;19.158;2024-03-17T00:35:53;6.97;;;2.67;;
77520;SDS011;66633;47.628;19.158;2024-03-17T00:38:19;6.33;;;2.23;;
77520;SDS011;66633;47.628;19.158;2024-03-17T00:40:44;5.10;;;2.22;;
77520;SDS011;66633;47.628;19.158;2024-03-17T00:43:10;6.13;;;2.30;;
77520;SDS011;66633;47.628;19.158;2024-03-17T00:45:36;5.10;;;2.20;;
77520;SDS011;66633;47.628;19.158;2024-03-17T00:48:02;5.28;;;2.30;;
77520;SDS011;66633;47.628;19.158;2024-03-17T00:50:27;5.03;;;2.38;;
77520;SDS011;66633;47.628;19.158;2024-03-17T00:52:52;4.77;;;2.10;;
77520;SDS011;66633;47.628;19.158;2024-03-17T00:55:18;5.60;;;2.27;;
77520;SDS011;66633;47.628;19.158;2024-03-17T00:57:43;5.33;;;2.17;;
77520;SDS011;66633;47.628;19.158;2024-03-17T01:00:09;4.30;;;1.77;;
77520;SDS011;66633;47.628;19.158;2024-03-17T01:02:37;4.05;;;1.92;;
77520;SDS011;66633;47.628;19.158;2024-03-17T01:05:02;4.60;;;2.00;;
77520;SDS011;66633;47.628;19.158;2024-03-17T01:07:30;4.88;;;1.95;;
77520;SDS011;66633;47.628;19.158;2024-03-17T01:09:55;3.88;;;1.60;;
77520;SDS011;66633;47.628;19.158;2024-03-17T01:12:21;4.35;;;1.70;;
77520;SDS011;66633;47.628;19.158;2024-03-17T01:14:46;4.37;;;1.90;;
77520;SDS011;66633;47.628;19.158;2024-03-17T01:17:12;3.35;;;1.63;;
77520;SDS011;66633;47.628;19.158;2024-03-17T01:19:37;4.00;;;1.65;;
77520;SDS011;66633;47.628;19.158;2024-03-17T01:22:02;3.67;;;1.60;;
77520;SDS011;66633;47.628;19.158;2024-03-17T01:24:28;4.55;;;1.60;;
77520;SDS011;66633;47.628;19.158;2024-03-17T01:26:59;4.13;;;1.77;;
77520;SDS011;66633;47.628;19.158;2024-03-17T01:29:25;3.22;;;1.50;;
77520;SDS011;66633;47.628;19.158;2024-03-17T01:31:50;5.10;;;1.70;;
77520;SDS011;66633;47.628;19.158;2024-03-17T01:34:16;5.20;;;2.10;;
77520;SDS011;66633;47.628;19.158;2024-03-17T01:36:41;5.63;;;1.90;;
77520;SDS011;66633;47.628;19.158;2024-03-17T01:39:06;4.87;;;1.87;;
77520;SDS011;66633;47.628;19.158;2024-03-17T01:41:32;3.88;;;1.73;;
77520;SDS011;66633;47.628;19.158;2024-03-17T01:43:57;3.45;;;1.58;;
77520;SDS011;66633;47.628;19.158;2024-03-17T01:46:24;3.42;;;1.60;;
77520;SDS011;66633;47.628;19.158;2024-03-17T01:48:49;4.22;;;1.65;;
77520;SDS011;66633;47.628;19.158;2024-03-17T01:51:15;5.78;;;1.77;;
77520;SDS011;66633;47.628;19.158;2024-03-17T01:53:40;4.35;;;1.92;;
77520;SDS011;66633;47.628;19.158;2024-03-17T01:56:07;3.90;;;1.80;;
77520;SDS011;66633;47.628;19.158;2024-03-17T01:58:35;3.88;;;1.83;;
77520;SDS011;66633;47.628;19.158;2024-03-17T02:01:01;4.60;;;2.20;;
77520;SDS011;66633;47.628;19.158;2024-03-17T02:03:26;6.78;;;2.10;;
77520;SDS011;66633;47.628;19.158;2024-03-17T02:05:52;4.68;;;2.22;;
77520;SDS011;66633;47.628;19.158;2024-03-17T02:08:17;5.43;;;2.33;;
77520;SDS011;66633;47.628;19.158;2024-03-17T02:10:43;4.88;;;2.30;;
77520;SDS011;66633;47.628;19.158;2024-03-17T02:13:08;6.25;;;2.28;;
77520;SDS011;66633;47.628;19.158;2024-03-17T02:15:34;5.38;;;2.53;;
77520;SDS011;66633;47.628;19.158;2024-03-17T02:17:59;4.68;;;2.15;;
77520;SDS011;66633;47.628;19.158;2024-03-17T02:20:25;5.40;;;2.45;;
77520;SDS011;66633;47.628;19.158;2024-03-17T02:23:10;5.43;;;2.50;;
77520;SDS011;66633;47.628;19.158;2024-03-17T02:25:35;5.25;;;2.60;;
77520;SDS011;66633;47.628;19.158;2024-03-17T02:28:01;6.00;;;2.75;;
77520;SDS011;66633;47.628;19.158;2024-03-17T02:30:26;5.45;;;2.40;;
77520;SDS011;66633;47.628;19.158;2024-03-17T02:32:52;6.68;;;2.40;;
77520;SDS011;66633;47.628;19.158;2024-03-17T02:35:17;5.70;;;2.50;;
77520;SDS011;66633;47.628;19.158;2024-03-17T02:37:42;5.43;;;2.60;;
77520;SDS011;66633;47.628;19.158;2024-03-17T02:40:08;5.67;;;3.07;;
77520;SDS011;66633;47.628;19.158;2024-03-17T02:42:35;5.00;;;2.53;;
77520;SDS011;66633;47.628;19.158;2024-03-17T02:45:03;6.97;;;2.70;;
77520;SDS011;66633;47.628;19.158;2024-03-17T02:47:28;6.90;;;2.67;;
77520;SDS011;66633;47.628;19.158;2024-03-17T02:49:55;6.32;;;3.00;;
77520;SDS011;66633;47.628;19.158;2024-03-17T02:52:20;5.93;;;3.10;;
77520;SDS011;66633;47.628;19.158;2024-03-17T02:54:46;5.57;;;2.67;;
77520;SDS011;66633;47.628;19.158;2024-03-17T02:57:11;6.10;;;3.10;;
77520;SDS011;66633;47.628;19.158;2024-03-17T02:59:36;6.60;;;2.88;;
77520;SDS011;66633;47.628;19.158;2024-03-17T03:02:02;6.35;;;3.13;;
77520;SDS011;66633;47.628;19.158;2024-03-17T03:04:27;6.20;;;2.90;;
77520;SDS011;66633;47.628;19.158;2024-03-17T03:06:52;7.28;;;2.75;;
77520;SDS011;66633;47.628;19.158;2024-03-17T03:09:18;6.65;;;3.05;;
77520;SDS011;66633;47.628;19.158;2024-03-17T03:11:51;5.68;;;2.97;;
77520;SDS011;66633;47.628;19.158;2024-03-17T03:14:17;6.40;;;3.13;;
77520;SDS011;66633;47.628;19.158;2024-03-17T03:16:42;6.20;;;2.70;;
77520;SDS011;66633;47.628;19.158;2024-03-17T03:19:08;5.50;;;2.75;;
77520;SDS011;66633;47.628;19.158;2024-03-17T03:21:33;5.88;;;2.50;;
77520;SDS011;66633;47.628;19.158;2024-03-17T03:23:59;5.63;;;2.63;;
77520;SDS011;66633;47.628;19.158;2024-03-17T03:26:24;6.65;;;2.70;;
77520;SDS011;66633;47.628;19.158;2024-03-17T03:28:50;5.40;;;2.60;;
77520;SDS011;66633;47.628;19.158;2024-03-17T03:31:15;5.72;;;2.88;;
77520;SDS011;66633;47.628;19.158;2024-03-17T03:33:41;6.05;;;2.63;;
77520;SDS011;66633;47.628;19.158;2024-03-17T03:36:08;5.55;;;2.40;;
77520;SDS011;66633;47.628;19.158;2024-03-17T03:38:33;6.82;;;2.30;;
77520;SDS011;66633;47.628;19.158;2024-03-17T03:40:58;5.03;;;2.13;;
77520;SDS011;66633;47.628;19.158;2024-03-17T03:43:30;5.88;;;2.30;;
77520;SDS011;66633;47.628;19.158;2024-03-17T03:45:56;4.85;;;2.10;;
77520;SDS011;66633;47.628;19.158;2024-03-17T03:48:21;4.27;;;1.77;;
77520;SDS011;66633;47.628;19.158;2024-03-17T03:50:47;4.60;;;1.92;;
77520;SDS011;66633;47.628;19.158;2024-03-17T03:53:13;5.13;;;2.00;;
77520;SDS011;66633;47.628;19.158;2024-03-17T03:55:38;5.70;;;2.20;;
77520;SDS011;66633;47.628;19.158;2024-03-17T03:58:04;5.65;;;2.22;;
77520;SDS011;66633;47.628;19.158;2024-03-17T04:00:29;5.90;;;2.33;;
77520;SDS011;66633;47.628;19.158;2024-03-17T04:02:56;5.50;;;2.30;;
77520;SDS011;66633;47.628;19.158;2024-03-17T04:05:21;4.88;;;2.35;;
77520;SDS011;66633;47.628;19.158;2024-03-17T04:07:47;4.90;;;2.20;;
77520;SDS011;66633;47.628;19.158;2024-03-17T04:10:13;4.97;;;2.30;;
77520;SDS011;66633;47.628;19.158;2024-03-17T04:12:39;4.32;;;2.08;;
77520;SDS011;66633;47.628;19.158;2024-03-17T04:15:04;4.82;;;2.53;;
77520;SDS011;66633;47.628;19.158;2024-03-17T04:17:31;4.85;;;2.20;;
77520;SDS011;66633;47.628;19.158;2024-03-17T04:19:57;5.05;;;2.35;;
77520;SDS011;66633;47.628;19.158;2024-03-17T04:22:22;5.18;;;2.70;;
77520;SDS011;66633;47.628;19.158;2024-03-17T04:24:48;5.13;;;2.53;;
77520;SDS011;66633;47.628;19.158;2024-03-17T04:27:21;4.95;;;2.42;;
77520;SDS011;66633;47.628;19.158;2024-03-17T04:29:47;5.40;;;2.55;;
77520;SDS011;66633;47.628;19.158;2024-03-17T04:32:13;5.60;;;2.58;;
77520;SDS011;66633;47.628;19.158;2024-03-17T04:34:38;7.75;;;2.60;;
77520;SDS011;66633;47.628;19.158;2024-03-17T04:37:04;6.30;;;2.70;;
77520;SDS011;66633;47.628;19.158;2024-03-17T04:39:29;5.90;;;2.70;;
77520;SDS011;66633;47.628;19.158;2024-03-17T04:41:54;5.10;;;2.27;;
77520;SDS011;66633;47.628;19.158;2024-03-17T04:44:20;5.57;;;2.40;;
77520;SDS011;66633;47.628;19.158;2024-03-17T04:46:45;5.27;;;2.27;;
77520;SDS011;66633;47.628;19.158;2024-03-17T04:49:11;5.32;;;2.58;;
77520;SDS011;66633;47.628;19.158;2024-03-17T04:51:36;5.47;;;2.55;;
77520;SDS011;66633;47.628;19.158;2024-03-17T04:54:01;5.43;;;2.67;;
77520;SDS011;66633;47.628;19.158;2024-03-17T04:56:31;5.55;;;2.80;;
77520;SDS011;66633;47.628;19.158;2024-03-17T04:58:56;5.38;;;2.80;;
77520;SDS011;66633;47.628;19.158;2024-03-17T05:01:21;5.93;;;2.80;;
77520;SDS011;66633;47.628;19.158;2024-03-17T05:03:47;4.70;;;2.03;;
77520;SDS011;66633;47.628;19.158;2024-03-17T05:06:12;4.87;;;2.10;;
77520;SDS011;66633;47.628;19.158;2024-03-17T05:08:37;5.60;;;2.10;;
77520;SDS011;66633;47.628;19.158;2024-03-17T05:11:04;5.18;;;2.42;;
77520;SDS011;66633;47.628;19.158;2024-03-17T05:13:32;5.00;;;2.00;;
77520;SDS011;66633;47.628;19.158;2024-03-17T05:15:59;5.90;;;2.58;;
77520;SDS011;66633;47.628;19.158;2024-03-17T05:18:24;3.83;;;1.73;;
77520;SDS011;66633;47.628;19.158;2024-03-17T05:21:00;4.70;;;2.03;;
77520;SDS011;66633;47.628;19.158;2024-03-17T05:23:29;5.43;;;2.00;;
77520;SDS011;66633;47.628;19.158;2024-03-17T05:25:55;4.70;;;1.80;;
77520;SDS011;66633;47.628;19.158;2024-03-17T05:28:21;4.90;;;2.20;;
77520;SDS011;66633;47.628;19.158;2024-03-17T05:30:46;5.68;;;2.38;;
77520;SDS011;66633;47.628;19.158;2024-03-17T05:33:13;4.95;;;1.77;;
77520;SDS011;66633;47.628;19.158;2024-03-17T05:35:38;5.65;;;2.30;;
77520;SDS011;66633;47.628;19.158;2024-03-17T05:38:04;4.80;;;2.20;;
77520;SDS011;66633;47.628;19.158;2024-03-17T05:40:29;5.00;;;2.50;;
77520;SDS011;66633;47.628;19.158;2024-03-17T05:42:56;6.40;;;2.20;;
77520;SDS011;66633;47.628;19.158;2024-03-17T05:45:21;5.72;;;2.50;;
77520;SDS011;66633;47.628;19.158;2024-03-17T05:47:46;4.70;;;2.10;;
77520;SDS011;66633;47.628;19.158;2024-03-17T05:50:11;5.10;;;2.37;;
77520;SDS011;66633;47.628;19.158;2024-03-17T05:52:37;7.25;;;2.45;;
77520;SDS011;66633;47.628;19.158;2024-03-17T05:55:03;5.78;;;2.25;;
77520;SDS011;66633;47.628;19.158;2024-03-17T05:57:28;7.68;;;2.33;;
77520;SDS011;66633;47.628;19.158;2024-03-17T05:59:53;5.95;;;2.60;;
77520;SDS011;66633;47.628;19.158;2024-03-17T06:02:20;5.80;;;2.40;;
77520;SDS011;66633;47.628;19.158;2024-03-17T06:04:45;5.97;;;2.50;;
77520;SDS011;66633;47.628;19.158;2024-03-17T06:07:11;5.38;;;2.00;;
77520;SDS011;66633;47.628;19.158;2024-03-17T06:09:36;6.18;;;2.50;;
77520;SDS011;66633;47.628;19.158;2024-03-17T06:12:01;5.40;;;2.20;;
77520;SDS011;66633;47.628;19.158;2024-03-17T06:14:27;5.63;;;2.25;;
77520;SDS011;66633;47.628;19.158;2024-03-17T06:16:52;6.10;;;2.22;;
77520;SDS011;66633;47.628;19.158;2024-03-17T06:19:17;6.90;;;2.43;;
77520;SDS011;66633;47.628;19.158;2024-03-17T06:21:43;5.88;;;2.25;;
77520;SDS011;66633;47.628;19.158;2024-03-17T06:24:08;5.63;;;2.05;;
77520;SDS011;66633;47.628;19.158;2024-03-17T06:26:33;5.80;;;2.73;;
77520;SDS011;66633;47.628;19.158;2024-03-17T06:29:02;5.03;;;2.10;;
77520;SDS011;66633;47.628;19.158;2024-03-17T06:31:27;6.10;;;2.05;;
77520;SDS011;66633;47.628;19.158;2024-03-17T06:33:53;5.60;;;2.40;;
77520;SDS011;66633;47.628;19.158;2024-03-17T06:36:18;5.00;;;1.93;;
77520;SDS011;66633;47.628;19.158;2024-03-17T06:38:43;4.10;;;1.90;;
77520;SDS011;66633;47.628;19.158;2024-03-17T06:41:11;5.83;;;1.93;;
77520;SDS011;66633;47.628;19.158;2024-03-17T06:43:39;6.18;;;2.00;;
77520;SDS011;66633;47.628;19.158;2024-03-17T06:46:13;4.47;;;2.10;;
77520;SDS011;66633;47.628;19.158;2024-03-17T06:48:39;4.95;;;2.33;;
77520;SDS011;66633;47.628;19.158;2024-03-17T06:51:04;4.85;;;1.77;;
77520;SDS011;66633;47.628;19.158;2024-03-17T06:53:30;4.75;;;1.95;;
77520;SDS011;66633;47.628;19.158;2024-03-17T06:55:56;5.50;;;1.92;;
77520;SDS011;66633;47.628;19.158;2024-03-17T06:58:22;5.97;;;1.90;;
77520;SDS011;66633;47.628;19.158;2024-03-17T07:00:57;4.85;;;1.90;;
77520;SDS011;66633;47.628;19.158;2024-03-17T07:03:24;5.85;;;2.22;;
77520;SDS011;66633;47.628;19.158;2024-03-17T07:05:51;4.88;;;2.00;;
77520;SDS011;66633;47.628;19.158;2024-03-17T07:08:16;4.35;;;1.92;;
77520;SDS011;66633;47.628;19.158;2024-03-17T07:10:41;6.00;;;2.20;;
77520;SDS011;66633;47.628;19.158;2024-03-17T07:13:07;5.70;;;2.30;;
77520;SDS011;66633;47.628;19.158;2024-03-17T07:15:32;8.35;;;2.75;;
77520;SDS011;66633;47.628;19.158;2024-03-17T07:18:00;5.97;;;2.22;;
77520;SDS011;66633;47.628;19.158;2024-03-17T07:20:28;6.80;;;2.30;;
77520;SDS011;66633;47.628;19.158;2024-03-17T07:22:57;4.82;;;2.15;;
77520;SDS011;66633;47.628;19.158;2024-03-17T07:25:22;5.53;;;2.00;;
77520;SDS011;66633;47.628;19.158;2024-03-17T07:27:48;3.93;;;1.73;;
77520;SDS011;66633;47.628;19.158;2024-03-17T07:30:13;5.72;;;2.05;;
77520;SDS011;66633;47.628;19.158;2024-03-17T07:32:38;6.13;;;2.00;;
77520;SDS011;66633;47.628;19.158;2024-03-17T07:35:04;5.32;;;1.90;;
77520;SDS011;66633;47.628;19.158;2024-03-17T07:37:29;6.45;;;1.92;;
77520;SDS011;66633;47.628;19.158;2024-03-17T07:39:57;5.30;;;1.77;;
77520;SDS011;66633;47.628;19.158;2024-03-17T07:42:23;5.13;;;1.83;;
77520;SDS011;66633;47.628;19.158;2024-03-17T07:44:48;5.50;;;1.90;;
77520;SDS011;66633;47.628;19.158;2024-03-17T07:47:13;4.57;;;1.90;;
77520;SDS011;66633;47.628;19.158;2024-03-17T07:49:39;6.55;;;2.00;;
77520;SDS011;66633;47.628;19.158;2024-03-17T07:52:05;6.97;;;1.92;;
77520;SDS011;66633;47.628;19.158;2024-03-17T07:54:30;4.78;;;1.88;;
77520;SDS011;66633;47.628;19.158;2024-03-17T07:56:56;5.40;;;1.90;;
77520;SDS011;66633;47.628;19.158;2024-03-17T07:59:21;4.80;;;1.70;;
77520;SDS011;66633;47.628;19.158;2024-03-17T08:01:46;5.03;;;1.73;;
77520;SDS011;66633;47.628;19.158;2024-03-17T08:04:12;5.27;;;1.97;;
77520;SDS011;66633;47.628;19.158;2024-03-17T08:06:38;4.60;;;1.77;;
77520;SDS011;66633;47.628;19.158;2024-03-17T08:09:03;5.88;;;2.00;;
77520;SDS011;66633;47.628;19.158;2024-03-17T08:11:29;5.90;;;1.98;;
77520;SDS011;66633;47.628;19.158;2024-03-17T08:13:55;6.65;;;2.17;;
77520;SDS011;66633;47.628;19.158;2024-03-17T08:16:20;6.07;;;2.13;;
77520;SDS011;66633;47.628;19.158;2024-03-17T08:18:46;5.00;;;2.00;;
77520;SDS011;66633;47.628;19.158;2024-03-17T08:21:11;5.15;;;1.80;;
77520;SDS011;66633;47.628;19.158;2024-03-17T08:23:37;5.00;;;1.83;;
77520;SDS011;66633;47.628;19.158;2024-03-17T08:28:31;5.17;;;2.07;;
77520;SDS011;66633;47.628;19.158;2024-03-17T08:30:57;4.57;;;1.90;;
77520;SDS011;66633;47.628;19.158;2024-03-17T08:33:23;7.60;;;2.20;;
77520;SDS011;66633;47.628;19.158;2024-03-17T08:35:55;6.47;;;1.92;;
77520;SDS011;66633;47.628;19.158;2024-03-17T08:38:20;5.68;;;2.33;;
77520;SDS011;66633;47.628;19.158;2024-03-17T08:40:49;5.80;;;2.10;;
77520;SDS011;66633;47.628;19.158;2024-03-17T08:43:14;6.40;;;2.30;;
77520;SDS011;66633;47.628;19.158;2024-03-17T08:45:40;5.70;;;2.10;;
77520;SDS011;66633;47.628;19.158;2024-03-17T08:48:05;7.15;;;1.88;;
77520;SDS011;66633;47.628;19.158;2024-03-17T08:50:31;6.65;;;2.30;;
77520;SDS011;66633;47.628;19.158;2024-03-17T08:52:58;8.15;;;3.13;;
77520;SDS011;66633;47.628;19.158;2024-03-17T08:55:24;8.05;;;2.72;;
77520;SDS011;66633;47.628;19.158;2024-03-17T08:57:49;8.23;;;3.20;;
77520;SDS011;66633;47.628;19.158;2024-03-17T09:00:14;5.22;;;2.15;;
77520;SDS011;66633;47.628;19.158;2024-03-17T09:02:40;6.22;;;2.33;;
77520;SDS011;66633;47.628;19.158;2024-03-17T09:05:06;5.00;;;1.83;;
77520;SDS011;66633;47.628;19.158;2024-03-17T09:07:31;6.28;;;2.10;;
77520;SDS011;66633;47.628;19.158;2024-03-17T09:09:57;4.97;;;1.98;;
77520;SDS011;66633;47.628;19.158;2024-03-17T09:12:22;8.05;;;2.38;;
77520;SDS011;66633;47.628;19.158;2024-03-17T09:14:47;4.75;;;1.67;;
77520;SDS011;66633;47.628;19.158;2024-03-17T09:17:13;5.80;;;2.10;;
77520;SDS011;66633;47.628;19.158;2024-03-17T09:19:38;7.20;;;2.33;;
77520;SDS011;66633;47.628;19.158;2024-03-17T09:22:04;8.38;;;2.30;;
77520;SDS011;66633;47.628;19.158;2024-03-17T09:24:29;6.18;;;2.10;;
77520;SDS011;66633;47.628;19.158;2024-03-17T09:26:55;7.75;;;2.10;;
77520;SDS011;66633;47.628;19.158;2024-03-17T09:29:20;7.95;;;2.58;;
77520;SDS011;66633;47.628;19.158;2024-03-17T09:31:45;5.45;;;2.22;;
77520;SDS011;66633;47.628;19.158;2024-03-17T09:34:11;7.43;;;2.47;;
77520;SDS011;66633;47.628;19.158;2024-03-17T09:36:36;5.70;;;2.17;;
77520;SDS011;66633;47.628;19.158;2024-03-17T09:39:01;6.50;;;2.30;;
77520;SDS011;66633;47.628;19.158;2024-03-17T09:41:29;6.55;;;2.15;;
77520;SDS011;66633;47.628;19.158;2024-03-17T09:43:55;9.73;;;3.17;;
77520;SDS011;66633;47.628;19.158;2024-03-17T09:46:24;9.55;;;2.50;;
77520;SDS011;66633;47.628;19.158;2024-03-17T09:48:51;7.25;;;2.25;;
77520;SDS011;66633;47.628;19.158;2024-03-17T09:51:20;7.75;;;2.42;;
77520;SDS011;66633;47.628;19.158;2024-03-17T09:53:46;5.97;;;2.03;;
77520;SDS011;66633;47.628;19.158;2024-03-17T09:56:13;7.13;;;2.13;;
77520;SDS011;66633;47.628;19.158;2024-03-17T09:58:40;6.80;;;2.47;;
77520;SDS011;66633;47.628;19.158;2024-03-17T10:01:05;6.77;;;2.70;;
77520;SDS011;66633;47.628;19.158;2024-03-17T10:06:09;6.35;;;2.28;;
77520;SDS011;66633;47.628;19.158;2024-03-17T10:08:41;8.40;;;2.42;;
77520;SDS011;66633;47.628;19.158;2024-03-17T10:11:06;6.25;;;1.60;;
77520;SDS011;66633;47.628;19.158;2024-03-17T10:13:31;7.10;;;2.08;;
77520;SDS011;66633;47.628;19.158;2024-03-17T10:15:56;6.43;;;1.53;;
77520;SDS011;66633;47.628;19.158;2024-03-17T10:18:22;5.80;;;1.77;;
77520;SDS011;66633;47.628;19.158;2024-03-17T10:20:48;6.93;;;2.10;;
77520;SDS011;66633;47.628;19.158;2024-03-17T10:23:17;7.03;;;2.05;;
77520;SDS011;66633;47.628;19.158;2024-03-17T10:25:44;5.63;;;1.80;;
77520;SDS011;66633;47.628;19.158;2024-03-17T10:28:13;6.93;;;2.20;;
77520;SDS011;66633;47.628;19.158;2024-03-17T10:30:39;5.60;;;2.15;;
77520;SDS011;66633;47.628;19.158;2024-03-17T10:33:05;5.60;;;1.83;;
77520;SDS011;66633;47.628;19.158;2024-03-17T10:35:33;5.03;;;2.03;;
77520;SDS011;66633;47.628;19.158;2024-03-17T10:38:00;4.68;;;1.60;;
77520;SDS011;66633;47.628;19.158;2024-03-17T10:40:26;5.95;;;1.85;;
77520;SDS011;66633;47.628;19.158;2024-03-17T10:42:52;5.00;;;1.90;;
77520;SDS011;66633;47.628;19.158;2024-03-17T10:45:17;4.72;;;1.63;;
77520;SDS011;66633;47.628;19.158;2024-03-17T10:47:52;4.85;;;1.75;;
77520;SDS011;66633;47.628;19.158;2024-03-17T10:52:47;4.80;;;1.50;;
77520;SDS011;66633;47.628;19.158;2024-03-17T10:55:25;6.80;;;1.83;;
77520;SDS011;66633;47.628;19.158;2024-03-17T10:57:51;4.28;;;1.58;;
77520;SDS011;66633;47.628;19.158;2024-03-17T11:00:18;6.78;;;1.50;;
77520;SDS011;66633;47.628;19.158;2024-03-17T11:02:44;5.35;;;1.50;;
77520;SDS011;66633;47.628;19.158;2024-03-17T11:07:37;5.18;;;1.77;;
77520;SDS011;66633;47.628;19.158;2024-03-17T11:10:08;3.63;;;1.30;;
77520;SDS011;66633;47.628;19.158;2024-03-17T11:17:54;5.07;;;1.73;;
77520;SDS011;66633;47.628;19.158;2024-03-17T11:20:21;5.25;;;1.60;;
77520;SDS011;66633;47.628;19.158;2024-03-17T11:22:50;4.78;;;1.55;;
77520;SDS011;66633;47.628;19.158;2024-03-17T11:27:50;4.22;;;1.75;;
77520;SDS011;66633;47.628;19.158;2024-03-17T11:32:59;5.63;;;1.63;;
77520;SDS011;66633;47.628;19.158;2024-03-17T11:35:25;4.53;;;1.60;;
77520;SDS011;66633;47.628;19.158;2024-03-17T11:40:47;6.60;;;1.90;;
77520;SDS011;66633;47.628;19.158;2024-03-17T11:43:16;4.70;;;2.00;;
77520;SDS011;66633;47.628;19.158;2024-03-17T11:45:41;5.57;;;1.55;;
77520;SDS011;66633;47.628;19.158;2024-03-17T11:48:10;5.97;;;2.00;;
77520;SDS011;66633;47.628;19.158;2024-03-17T11:50:37;6.32;;;2.50;;
77520;SDS011;66633;47.628;19.158;2024-03-17T11:53:03;5.78;;;2.35;;
77520;SDS011;66633;47.628;19.158;2024-03-17T11:55:28;5.38;;;1.95;;
77520;SDS011;66633;47.628;19.158;2024-03-17T11:57:57;6.25;;;2.38;;
77520;SDS011;66633;47.628;19.158;2024-03-17T12:00:23;5.13;;;2.33;;
77520;SDS011;66633;47.628;19.158;2024-03-17T12:02:49;4.72;;;1.90;;
77520;SDS011;66633;47.628;19.158;2024-03-17T12:05:15;5.45;;;2.15;;
77520;SDS011;66633;47.628;19.158;2024-03-17T12:07:44;5.38;;;2.30;;
77520;SDS011;66633;47.628;19.158;2024-03-17T12:10:12;6.50;;;2.30;;
77520;SDS011;66633;47.628;19.158;2024-03-17T12:12:41;6.10;;;2.10;;
77520;SDS011;66633;47.628;19.158;2024-03-17T12:15:19;4.97;;;1.90;;
77520;SDS011;66633;47.628;19.158;2024-03-17T12:17:51;5.13;;;2.10;;
77520;SDS011;66633;47.628;19.158;2024-03-17T12:20:17;7.05;;;2.28;;
77520;SDS011;66633;47.628;19.158;2024-03-17T12:22:43;5.60;;;2.08;;
77520;SDS011;66633;47.628;19.158;2024-03-17T12:25:14;6.03;;;2.33;;
77520;SDS011;66633;47.628;19.158;2024-03-17T12:27:40;4.25;;;1.98;;
77520;SDS011;66633;47.628;19.158;2024-03-17T12:30:09;5.03;;;1.95;;
77520;SDS011;66633;47.628;19.158;2024-03-17T12:32:35;6.60;;;2.40;;
77520;SDS011;66633;47.628;19.158;2024-03-17T12:35:00;6.80;;;2.17;;
77520;SDS011;66633;47.628;19.158;2024-03-17T12:37:27;5.40;;;2.00;;
77520;SDS011;66633;47.628;19.158;2024-03-17T12:39:59;7.35;;;2.97;;
77520;SDS011;66633;47.628;19.158;2024-03-17T12:42:25;6.32;;;2.03;;
77520;SDS011;66633;47.628;19.158;2024-03-17T12:44:51;4.80;;;2.28;;
77520;SDS011;66633;47.628;19.158;2024-03-17T12:47:20;5.93;;;2.05;;
77520;SDS011;66633;47.628;19.158;2024-03-17T12:49:48;6.13;;;2.17;;
77520;SDS011;66633;47.628;19.158;2024-03-17T12:52:20;4.43;;;2.15;;
77520;SDS011;66633;47.628;19.158;2024-03-17T12:54:58;4.68;;;1.83;;
77520;SDS011;66633;47.628;19.158;2024-03-17T12:57:44;4.93;;;2.15;;
77520;SDS011;66633;47.628;19.158;2024-03-17T13:00:27;5.97;;;2.22;;
77520;SDS011;66633;47.628;19.158;2024-03-17T13:03:05;8.00;;;3.00;;
77520;SDS011;66633;47.628;19.158;2024-03-17T13:05:31;7.60;;;2.50;;
77520;SDS011;66633;47.628;19.158;2024-03-17T13:07:57;5.15;;;2.42;;
77520;SDS011;66633;47.628;19.158;2024-03-17T13:10:23;4.05;;;1.70;;
77520;SDS011;66633;47.628;19.158;2024-03-17T13:12:58;4.28;;;1.70;;
77520;SDS011;66633;47.628;19.158;2024-03-17T13:15:24;3.83;;;1.60;;
77520;SDS011;66633;47.628;19.158;2024-03-17T13:17:50;6.68;;;1.77;;
77520;SDS011;66633;47.628;19.158;2024-03-17T13:20:15;4.50;;;1.60;;
77520;SDS011;66633;47.628;19.158;2024-03-17T13:22:44;6.85;;;2.00;;
77520;SDS011;66633;47.628;19.158;2024-03-17T13:27:38;4.47;;;1.70;;
77520;SDS011;66633;47.628;19.158;2024-03-17T13:30:03;3.75;;;1.52;;
77520;SDS011;66633;47.628;19.158;2024-03-17T13:32:31;7.05;;;1.85;;
77520;SDS011;66633;47.628;19.158;2024-03-17T13:34:56;4.22;;;1.60;;
77520;SDS011;66633;47.628;19.158;2024-03-17T13:37:22;5.37;;;1.70;;
77520;SDS011;66633;47.628;19.158;2024-03-17T13:39:48;3.97;;;1.70;;
77520;SDS011;66633;47.628;19.158;2024-03-17T13:42:14;3.70;;;1.48;;
77520;SDS011;66633;47.628;19.158;2024-03-17T13:44:39;5.55;;;1.67;;
77520;SDS011;66633;47.628;19.158;2024-03-17T13:47:05;5.00;;;1.80;;
77520;SDS011;66633;47.628;19.158;2024-03-17T13:49:30;5.40;;;1.90;;
77520;SDS011;66633;47.628;19.158;2024-03-17T13:51:55;3.40;;;1.60;;
77520;SDS011;66633;47.628;19.158;2024-03-17T13:54:22;6.53;;;1.98;;
77520;SDS011;66633;47.628;19.158;2024-03-17T13:56:47;5.07;;;1.80;;
77520;SDS011;66633;47.628;19.158;2024-03-17T13:59:13;4.30;;;1.95;;
77520;SDS011;66633;47.628;19.158;2024-03-17T14:01:38;4.35;;;1.85;;
77520;SDS011;66633;47.628;19.158;2024-03-17T14:04:04;4.20;;;1.70;;
77520;SDS011;66633;47.628;19.158;2024-03-17T14:06:29;4.77;;;1.73;;
77520;SDS011;66633;47.628;19.158;2024-03-17T14:08:55;5.05;;;2.00;;
77520;SDS011;66633;47.628;19.158;2024-03-17T14:11:20;3.92;;;1.45;;
77520;SDS011;66633;47.628;19.158;2024-03-17T14:13:45;4.47;;;1.70;;
77520;SDS011;66633;47.628;19.158;2024-03-17T14:16:11;4.87;;;1.70;;
77520;SDS011;66633;47.628;19.158;2024-03-17T14:18:36;6.33;;;1.90;;
77520;SDS011;66633;47.628;19.158;2024-03-17T14:21:01;4.83;;;1.80;;
77520;SDS011;66633;47.628;19.158;2024-03-17T14:23:26;4.72;;;1.60;;
77520;SDS011;66633;47.628;19.158;2024-03-17T14:25:55;4.70;;;2.10;;
77520;SDS011;66633;47.628;19.158;2024-03-17T14:28:20;5.18;;;1.73;;
77520;SDS011;66633;47.628;19.158;2024-03-17T14:30:47;6.53;;;2.03;;
77520;SDS011;66633;47.628;19.158;2024-03-17T14:33:12;5.25;;;1.90;;
77520;SDS011;66633;47.628;19.158;2024-03-17T14:35:37;5.35;;;1.83;;
77520;SDS011;66633;47.628;19.158;2024-03-17T14:38:03;3.90;;;1.73;;
77520;SDS011;66633;47.628;19.158;2024-03-17T14:40:29;4.47;;;1.65;;
77520;SDS011;66633;47.628;19.158;2024-03-17T14:42:55;4.00;;;1.60;;
77520;SDS011;66633;47.628;19.158;2024-03-17T14:45:23;6.82;;;1.80;;
77520;SDS011;66633;47.628;19.158;2024-03-17T14:47:52;6.18;;;1.98;;
77520;SDS011;66633;47.628;19.158;2024-03-17T14:50:17;5.32;;;1.73;;
77520;SDS011;66633;47.628;19.158;2024-03-17T14:52:42;5.10;;;2.25;;
77520;SDS011;66633;47.628;19.158;2024-03-17T14:55:08;4.25;;;1.50;;